sensor_id;sensor_type;location;lat;lon;timestamp;temperature;humidity
5723;DHT22;2886;49.722;8.612;2023-10-13T00:00:33;18.20;99.90
5723;DHT22;2886;49.722;8.612;2023-10-13T00:03:03;18.30;99.90
5723;DHT22;2886;49.722;8.612;2023-10-13T00:05:31;18.30;99.90
5723;DHT22;2886;49.722;8.612;2023-10-13T00:07:59;18.30;99.90
5723;DHT22;2886;49.722;8.612;2023-10-13T00:10:27;18.40;99.90
5723;DHT22;2886;49.722;8.612;2023-10-13T00:12:53;18.40;99.90
5723;DHT22;2886;49.722;8.612;2023-10-13T00:15:18;18.50;99.90
5723;DHT22;2886;49.722;8.612;2023-10-13T00:17:47;18.50;99.90
5723;DHT22;2886;49.722;8.612;2023-10-13T00:20:12;18.60;99.90
5723;DHT22;2886;49.722;8.612;2023-10-13T00:22:43;18.60;99.90
5723;DHT22;2886;49.722;8.612;2023-10-13T00:25:10;18.60;99.90
5723;DHT22;2886;49.722;8.612;2023-10-13T00:27:44;18.60;99.90
5723;DHT22;2886;49.722;8.612;2023-10-13T00:30:10;18.70;99.90
5723;DHT22;2886;49.722;8.612;2023-10-13T00:32:50;18.70;99.90
5723;DHT22;2886;49.722;8.612;2023-10-13T00:35:26;18.70;99.90
5723;DHT22;2886;49.722;8.612;2023-10-13T00:38:02;18.60;99.90
5723;DHT22;2886;49.722;8.612;2023-10-13T00:40:43;18.60;99.90
5723;DHT22;2886;49.722;8.612;2023-10-13T00:43:10;18.60;99.90
5723;DHT22;2886;49.722;8.612;2023-10-13T00:46:01;18.70;99.90
5723;DHT22;2886;49.722;8.612;2023-10-13T00:48:37;18.70;99.90
5723;DHT22;2886;49.722;8.612;2023-10-13T00:51:12;18.70;99.90
5723;DHT22;2886;49.722;8.612;2023-10-13T00:53:57;18.70;99.90
5723;DHT22;2886;49.722;8.612;2023-10-13T00:56:25;18.70;99.90
5723;DHT22;2886;49.722;8.612;2023-10-13T00:58:56;18.70;99.90
5723;DHT22;2886;49.722;8.612;2023-10-13T01:01:28;18.70;99.90
5723;DHT22;2886;49.722;8.612;2023-10-13T01:03:56;18.70;99.90
5723;DHT22;2886;49.722;8.612;2023-10-13T01:06:30;18.70;99.90
5723;DHT22;2886;49.722;8.612;2023-10-13T01:09:00;18.80;99.90
5723;DHT22;2886;49.722;8.612;2023-10-13T01:11:37;18.70;99.90
5723;DHT22;2886;49.722;8.612;2023-10-13T01:14:03;18.70;99.90
5723;DHT22;2886;49.722;8.612;2023-10-13T01:16:29;18.70;99.90
5723;DHT22;2886;49.722;8.612;2023-10-13T01:18:55;18.70;99.90
5723;DHT22;2886;49.722;8.612;2023-10-13T01:21:25;18.70;99.90
5723;DHT22;2886;49.722;8.612;2023-10-13T01:23:55;18.80;99.90
5723;DHT22;2886;49.722;8.612;2023-10-13T01:26:20;18.80;99.90
5723;DHT22;2886;49.722;8.612;2023-10-13T01:28:51;18.80;99.90
5723;DHT22;2886;49.722;8.612;2023-10-13T01:31:17;18.80;99.90
5723;DHT22;2886;49.722;8.612;2023-10-13T01:33:51;18.80;99.90
5723;DHT22;2886;49.722;8.612;2023-10-13T01:36:21;18.80;99.90
5723;DHT22;2886;49.722;8.612;2023-10-13T01:38:47;18.70;99.90
5723;DHT22;2886;49.722;8.612;2023-10-13T01:41:14;18.80;99.90
5723;DHT22;2886;49.722;8.612;2023-10-13T01:43:40;18.70;99.90
5723;DHT22;2886;49.722;8.612;2023-10-13T01:46:06;18.80;99.90
5723;DHT22;2886;49.722;8.612;2023-10-13T01:48:31;18.80;99.90
5723;DHT22;2886;49.722;8.612;2023-10-13T01:51:04;18.70;99.90
5723;DHT22;2886;49.722;8.612;2023-10-13T01:53:31;18.70;99.90
5723;DHT22;2886;49.722;8.612;2023-10-13T01:55:57;18.80;99.90
5723;DHT22;2886;49.722;8.612;2023-10-13T01:58:22;18.70;99.90
5723;DHT22;2886;49.722;8.612;2023-10-13T02:00:49;18.80;99.90
5723;DHT22;2886;49.722;8.612;2023-10-13T02:03:15;18.80;99.90
5723;DHT22;2886;49.722;8.612;2023-10-13T02:05:42;18.80;99.90
5723;DHT22;2886;49.722;8.612;2023-10-13T02:08:23;18.80;99.90
5723;DHT22;2886;49.722;8.612;2023-10-13T02:10:56;18.80;99.90
5723;DHT22;2886;49.722;8.612;2023-10-13T02:13:23;18.80;99.90
5723;DHT22;2886;49.722;8.612;2023-10-13T02:15:53;18.80;99.90
5723;DHT22;2886;49.722;8.612;2023-10-13T02:18:22;18.80;99.90
5723;DHT22;2886;49.722;8.612;2023-10-13T02:21:02;18.80;99.90
5723;DHT22;2886;49.722;8.612;2023-10-13T02:23:38;18.80;99.90
5723;DHT22;2886;49.722;8.612;2023-10-13T02:26:09;18.80;99.90
5723;DHT22;2886;49.722;8.612;2023-10-13T02:28:42;18.80;99.90
5723;DHT22;2886;49.722;8.612;2023-10-13T02:31:16;18.80;99.90
5723;DHT22;2886;49.722;8.612;2023-10-13T02:33:44;18.80;99.90
5723;DHT22;2886;49.722;8.612;2023-10-13T02:36:10;18.80;99.90
5723;DHT22;2886;49.722;8.612;2023-10-13T02:38:38;18.80;99.90
5723;DHT22;2886;49.722;8.612;2023-10-13T02:41:10;18.80;99.90
5723;DHT22;2886;49.722;8.612;2023-10-13T02:43:36;18.70;99.90
5723;DHT22;2886;49.722;8.612;2023-10-13T02:46:03;18.70;99.90
5723;DHT22;2886;49.722;8.612;2023-10-13T02:48:29;18.60;99.90
5723;DHT22;2886;49.722;8.612;2023-10-13T02:51:12;18.50;99.90
5723;DHT22;2886;49.722;8.612;2023-10-13T02:53:47;18.40;99.90
5723;DHT22;2886;49.722;8.612;2023-10-13T02:56:13;18.40;99.90
5723;DHT22;2886;49.722;8.612;2023-10-13T02:58:40;18.40;99.90
5723;DHT22;2886;49.722;8.612;2023-10-13T03:01:09;18.30;99.90
5723;DHT22;2886;49.722;8.612;2023-10-13T03:03:46;18.30;99.90
5723;DHT22;2886;49.722;8.612;2023-10-13T03:06:15;18.30;99.90
5723;DHT22;2886;49.722;8.612;2023-10-13T03:08:41;18.20;99.90
5723;DHT22;2886;49.722;8.612;2023-10-13T03:11:10;18.20;99.90
5723;DHT22;2886;49.722;8.612;2023-10-13T03:13:36;18.10;99.90
5723;DHT22;2886;49.722;8.612;2023-10-13T03:16:11;18.00;99.90
5723;DHT22;2886;49.722;8.612;2023-10-13T03:18:38;18.00;99.90
5723;DHT22;2886;49.722;8.612;2023-10-13T03:21:04;17.90;99.90
5723;DHT22;2886;49.722;8.612;2023-10-13T03:23:30;17.90;99.90
5723;DHT22;2886;49.722;8.612;2023-10-13T03:26:11;17.90;99.90
5723;DHT22;2886;49.722;8.612;2023-10-13T03:28:36;18.10;99.90
5723;DHT22;2886;49.722;8.612;2023-10-13T03:31:03;18.10;99.90
5723;DHT22;2886;49.722;8.612;2023-10-13T03:33:29;18.20;99.90
5723;DHT22;2886;49.722;8.612;2023-10-13T03:35:58;18.20;99.90
5723;DHT22;2886;49.722;8.612;2023-10-13T03:38:31;18.40;99.90
5723;DHT22;2886;49.722;8.612;2023-10-13T03:41:02;18.40;99.90
5723;DHT22;2886;49.722;8.612;2023-10-13T03:43:37;18.40;99.90
5723;DHT22;2886;49.722;8.612;2023-10-13T03:46:10;18.40;99.90
5723;DHT22;2886;49.722;8.612;2023-10-13T03:48:36;18.40;99.90
5723;DHT22;2886;49.722;8.612;2023-10-13T03:51:18;18.50;99.90
5723;DHT22;2886;49.722;8.612;2023-10-13T03:53:44;18.40;99.90
5723;DHT22;2886;49.722;8.612;2023-10-13T03:56:20;18.40;99.90
5723;DHT22;2886;49.722;8.612;2023-10-13T03:58:53;18.40;99.90
5723;DHT22;2886;49.722;8.612;2023-10-13T04:01:20;18.40;99.90
5723;DHT22;2886;49.722;8.612;2023-10-13T04:03:58;18.40;99.90
5723;DHT22;2886;49.722;8.612;2023-10-13T04:06:32;18.40;99.90
5723;DHT22;2886;49.722;8.612;2023-10-13T04:09:16;18.40;99.90
5723;DHT22;2886;49.722;8.612;2023-10-13T04:12:04;18.40;99.90
5723;DHT22;2886;49.722;8.612;2023-10-13T04:14:37;18.40;99.90
5723;DHT22;2886;49.722;8.612;2023-10-13T04:17:35;18.50;99.90
5723;DHT22;2886;49.722;8.612;2023-10-13T04:20:06;18.50;99.90
5723;DHT22;2886;49.722;8.612;2023-10-13T04:22:40;18.60;99.90
5723;DHT22;2886;49.722;8.612;2023-10-13T04:25:22;18.60;99.90
5723;DHT22;2886;49.722;8.612;2023-10-13T04:28:01;18.60;99.90
5723;DHT22;2886;49.722;8.612;2023-10-13T04:30:44;18.60;99.90
5723;DHT22;2886;49.722;8.612;2023-10-13T04:33:26;18.70;99.90
5723;DHT22;2886;49.722;8.612;2023-10-13T04:36:20;18.60;99.90
5723;DHT22;2886;49.722;8.612;2023-10-13T04:38:53;18.60;99.90
5723;DHT22;2886;49.722;8.612;2023-10-13T04:41:29;18.70;99.90
5723;DHT22;2886;49.722;8.612;2023-10-13T04:44:04;18.70;99.90
5723;DHT22;2886;49.722;8.612;2023-10-13T04:46:31;18.60;99.90
5723;DHT22;2886;49.722;8.612;2023-10-13T04:49:22;18.70;99.90
5723;DHT22;2886;49.722;8.612;2023-10-13T04:51:58;18.70;99.90
5723;DHT22;2886;49.722;8.612;2023-10-13T04:54:28;18.80;99.90
5723;DHT22;2886;49.722;8.612;2023-10-13T04:57:02;18.80;99.90
5723;DHT22;2886;49.722;8.612;2023-10-13T04:59:40;18.90;99.90
5723;DHT22;2886;49.722;8.612;2023-10-13T05:02:24;18.90;99.90
5723;DHT22;2886;49.722;8.612;2023-10-13T05:05:14;18.90;99.90
5723;DHT22;2886;49.722;8.612;2023-10-13T05:07:43;19.00;99.90
5723;DHT22;2886;49.722;8.612;2023-10-13T05:10:28;19.00;99.90
5723;DHT22;2886;49.722;8.612;2023-10-13T05:13:12;19.00;99.90
5723;DHT22;2886;49.722;8.612;2023-10-13T05:15:56;19.10;99.90
5723;DHT22;2886;49.722;8.612;2023-10-13T05:18:40;19.20;99.90
5723;DHT22;2886;49.722;8.612;2023-10-13T05:21:24;19.20;99.90
5723;DHT22;2886;49.722;8.612;2023-10-13T05:24:08;19.30;99.90
5723;DHT22;2886;49.722;8.612;2023-10-13T05:26:53;19.20;99.90
5723;DHT22;2886;49.722;8.612;2023-10-13T05:29:41;19.20;99.90
5723;DHT22;2886;49.722;8.612;2023-10-13T05:32:25;19.20;99.90
5723;DHT22;2886;49.722;8.612;2023-10-13T05:35:11;19.20;99.90
5723;DHT22;2886;49.722;8.612;2023-10-13T05:37:55;19.20;99.90
5723;DHT22;2886;49.722;8.612;2023-10-13T05:40:39;19.20;99.90
5723;DHT22;2886;49.722;8.612;2023-10-13T05:43:23;19.20;99.90
5723;DHT22;2886;49.722;8.612;2023-10-13T05:46:07;19.20;99.90
5723;DHT22;2886;49.722;8.612;2023-10-13T05:48:52;19.20;99.90
5723;DHT22;2886;49.722;8.612;2023-10-13T05:51:25;19.20;99.90
5723;DHT22;2886;49.722;8.612;2023-10-13T05:54:05;19.20;99.90
5723;DHT22;2886;49.722;8.612;2023-10-13T05:56:40;19.20;99.90
5723;DHT22;2886;49.722;8.612;2023-10-13T05:59:26;19.20;99.90
5723;DHT22;2886;49.722;8.612;2023-10-13T06:02:10;19.20;99.90
5723;DHT22;2886;49.722;8.612;2023-10-13T06:04:55;19.20;99.90
5723;DHT22;2886;49.722;8.612;2023-10-13T06:07:39;19.20;99.90
5723;DHT22;2886;49.722;8.612;2023-10-13T06:10:25;19.20;99.90
5723;DHT22;2886;49.722;8.612;2023-10-13T06:13:10;19.30;99.70
5723;DHT22;2886;49.722;8.612;2023-10-13T06:15:54;19.20;99.60
5723;DHT22;2886;49.722;8.612;2023-10-13T06:18:38;19.20;99.10
5723;DHT22;2886;49.722;8.612;2023-10-13T06:21:22;19.20;98.40
5723;DHT22;2886;49.722;8.612;2023-10-13T06:24:06;19.20;98.20
5723;DHT22;2886;49.722;8.612;2023-10-13T06:26:51;19.20;97.40
5723;DHT22;2886;49.722;8.612;2023-10-13T06:29:35;19.20;97.10
5723;DHT22;2886;49.722;8.612;2023-10-13T06:32:01;19.10;97.10
5723;DHT22;2886;49.722;8.612;2023-10-13T06:34:27;19.10;97.00
5723;DHT22;2886;49.722;8.612;2023-10-13T06:37:16;19.10;96.30
5723;DHT22;2886;49.722;8.612;2023-10-13T06:39:51;19.10;95.90
5723;DHT22;2886;49.722;8.612;2023-10-13T06:42:18;19.10;94.50
5723;DHT22;2886;49.722;8.612;2023-10-13T06:44:45;19.20;94.60
5723;DHT22;2886;49.722;8.612;2023-10-13T06:47:12;19.30;93.40
5723;DHT22;2886;49.722;8.612;2023-10-13T06:49:40;19.30;93.00
5723;DHT22;2886;49.722;8.612;2023-10-13T06:52:09;19.40;92.60
5723;DHT22;2886;49.722;8.612;2023-10-13T06:54:35;19.50;91.40
5723;DHT22;2886;49.722;8.612;2023-10-13T06:57:00;19.60;90.90
5723;DHT22;2886;49.722;8.612;2023-10-13T06:59:29;19.70;90.70
5723;DHT22;2886;49.722;8.612;2023-10-13T07:01:58;19.80;90.10
5723;DHT22;2886;49.722;8.612;2023-10-13T07:04:29;20.00;88.70
5723;DHT22;2886;49.722;8.612;2023-10-13T07:06:55;20.10;85.90
5723;DHT22;2886;49.722;8.612;2023-10-13T07:09:21;20.30;86.00
5723;DHT22;2886;49.722;8.612;2023-10-13T07:12:05;20.40;84.40
5723;DHT22;2886;49.722;8.612;2023-10-13T07:14:52;20.50;83.90
5723;DHT22;2886;49.722;8.612;2023-10-13T07:17:19;20.50;84.20
5723;DHT22;2886;49.722;8.612;2023-10-13T07:19:53;20.50;82.10
5723;DHT22;2886;49.722;8.612;2023-10-13T07:22:19;20.50;82.00
5723;DHT22;2886;49.722;8.612;2023-10-13T07:24:46;20.50;81.60
5723;DHT22;2886;49.722;8.612;2023-10-13T07:27:21;20.60;82.20
5723;DHT22;2886;49.722;8.612;2023-10-13T07:29:56;20.60;80.70
5723;DHT22;2886;49.722;8.612;2023-10-13T07:32:32;20.60;80.50
5723;DHT22;2886;49.722;8.612;2023-10-13T07:34:59;20.60;82.60
5723;DHT22;2886;49.722;8.612;2023-10-13T07:37:35;20.60;80.80
5723;DHT22;2886;49.722;8.612;2023-10-13T07:40:01;20.80;79.00
5723;DHT22;2886;49.722;8.612;2023-10-13T07:42:28;20.90;78.50
5723;DHT22;2886;49.722;8.612;2023-10-13T07:45:05;21.00;76.10
5723;DHT22;2886;49.722;8.612;2023-10-13T07:47:31;21.00;77.10
5723;DHT22;2886;49.722;8.612;2023-10-13T07:49:59;20.90;76.20
5723;DHT22;2886;49.722;8.612;2023-10-13T07:52:24;20.90;75.70
5723;DHT22;2886;49.722;8.612;2023-10-13T07:54:52;20.90;75.60
5723;DHT22;2886;49.722;8.612;2023-10-13T07:57:41;21.00;76.20
5723;DHT22;2886;49.722;8.612;2023-10-13T08:00:20;20.80;76.80
5723;DHT22;2886;49.722;8.612;2023-10-13T08:03:04;20.70;78.30
5723;DHT22;2886;49.722;8.612;2023-10-13T08:05:45;20.50;78.30
5723;DHT22;2886;49.722;8.612;2023-10-13T08:08:32;20.50;79.50
5723;DHT22;2886;49.722;8.612;2023-10-13T08:11:07;20.40;80.00
5723;DHT22;2886;49.722;8.612;2023-10-13T08:13:51;20.40;78.80
5723;DHT22;2886;49.722;8.612;2023-10-13T08:16:21;20.30;79.70
5723;DHT22;2886;49.722;8.612;2023-10-13T08:18:51;20.30;79.30
5723;DHT22;2886;49.722;8.612;2023-10-13T08:21:18;20.40;79.20
5723;DHT22;2886;49.722;8.612;2023-10-13T08:23:51;20.50;79.10
5723;DHT22;2886;49.722;8.612;2023-10-13T08:26:21;20.70;77.20
5723;DHT22;2886;49.722;8.612;2023-10-13T08:29:05;20.80;75.70
5723;DHT22;2886;49.722;8.612;2023-10-13T08:31:51;20.90;74.30
5723;DHT22;2886;49.722;8.612;2023-10-13T08:34:33;21.00;73.40
5723;DHT22;2886;49.722;8.612;2023-10-13T08:37:07;21.10;72.50
5723;DHT22;2886;49.722;8.612;2023-10-13T08:39:53;21.20;72.50
5723;DHT22;2886;49.722;8.612;2023-10-13T08:42:38;21.30;71.80
5723;DHT22;2886;49.722;8.612;2023-10-13T08:45:10;21.40;70.70
5723;DHT22;2886;49.722;8.612;2023-10-13T08:47:59;21.70;69.00
5723;DHT22;2886;49.722;8.612;2023-10-13T08:55:56;22.10;67.40
5723;DHT22;2886;49.722;8.612;2023-10-13T08:58:44;22.00;65.40
5723;DHT22;2886;49.722;8.612;2023-10-13T09:01:31;22.10;64.60
5723;DHT22;2886;49.722;8.612;2023-10-13T09:04:15;22.40;63.50
5723;DHT22;2886;49.722;8.612;2023-10-13T09:06:45;22.70;60.50
5723;DHT22;2886;49.722;8.612;2023-10-13T09:09:13;23.00;59.80
5723;DHT22;2886;49.722;8.612;2023-10-13T09:11:57;23.20;58.90
5723;DHT22;2886;49.722;8.612;2023-10-13T09:14:42;23.40;57.90
5723;DHT22;2886;49.722;8.612;2023-10-13T09:17:12;23.40;57.10
5723;DHT22;2886;49.722;8.612;2023-10-13T09:19:59;23.50;57.50
5723;DHT22;2886;49.722;8.612;2023-10-13T09:22:26;23.60;56.70
5723;DHT22;2886;49.722;8.612;2023-10-13T09:25:04;23.70;56.60
5723;DHT22;2886;49.722;8.612;2023-10-13T09:27:32;23.90;57.00
5723;DHT22;2886;49.722;8.612;2023-10-13T09:29:59;24.00;55.80
5723;DHT22;2886;49.722;8.612;2023-10-13T09:32:36;24.00;55.50
5723;DHT22;2886;49.722;8.612;2023-10-13T09:35:17;23.90;55.70
5723;DHT22;2886;49.722;8.612;2023-10-13T09:37:44;24.00;54.70
5723;DHT22;2886;49.722;8.612;2023-10-13T09:40:15;24.10;56.00
5723;DHT22;2886;49.722;8.612;2023-10-13T09:42:52;24.20;54.90
5723;DHT22;2886;49.722;8.612;2023-10-13T09:45:19;24.30;55.00
5723;DHT22;2886;49.722;8.612;2023-10-13T09:47:52;24.40;53.70
5723;DHT22;2886;49.722;8.612;2023-10-13T09:50:23;24.60;53.80
5723;DHT22;2886;49.722;8.612;2023-10-13T09:52:52;24.80;52.30
5723;DHT22;2886;49.722;8.612;2023-10-13T09:55:33;25.10;51.10
5723;DHT22;2886;49.722;8.612;2023-10-13T09:58:05;25.20;50.40
5723;DHT22;2886;49.722;8.612;2023-10-13T10:00:47;25.20;50.00
5723;DHT22;2886;49.722;8.612;2023-10-13T10:03:15;25.20;50.20
5723;DHT22;2886;49.722;8.612;2023-10-13T10:06:02;25.00;48.20
5723;DHT22;2886;49.722;8.612;2023-10-13T10:08:43;24.80;49.50
5723;DHT22;2886;49.722;8.612;2023-10-13T10:19:25;25.20;47.80
5723;DHT22;2886;49.722;8.612;2023-10-13T10:22:01;25.30;48.60
5723;DHT22;2886;49.722;8.612;2023-10-13T10:24:30;25.20;48.00
5723;DHT22;2886;49.722;8.612;2023-10-13T10:26:56;25.20;48.50
5723;DHT22;2886;49.722;8.612;2023-10-13T10:29:22;25.20;48.00
5723;DHT22;2886;49.722;8.612;2023-10-13T10:31:48;25.40;47.70
5723;DHT22;2886;49.722;8.612;2023-10-13T10:34:14;25.50;47.00
5723;DHT22;2886;49.722;8.612;2023-10-13T10:36:53;25.40;47.50
5723;DHT22;2886;49.722;8.612;2023-10-13T10:39:19;25.00;47.20
5723;DHT22;2886;49.722;8.612;2023-10-13T10:41:44;24.80;47.40
5723;DHT22;2886;49.722;8.612;2023-10-13T10:44:14;24.60;47.40
5723;DHT22;2886;49.722;8.612;2023-10-13T10:47:13;24.60;48.00
5723;DHT22;2886;49.722;8.612;2023-10-13T10:49:46;24.80;47.30
5723;DHT22;2886;49.722;8.612;2023-10-13T10:52:16;24.80;46.50
5723;DHT22;2886;49.722;8.612;2023-10-13T10:54:44;24.90;47.00
5723;DHT22;2886;49.722;8.612;2023-10-13T10:57:11;25.00;46.60
5723;DHT22;2886;49.722;8.612;2023-10-13T10:59:38;25.00;46.60
5723;DHT22;2886;49.722;8.612;2023-10-13T11:02:04;25.10;46.50
5723;DHT22;2886;49.722;8.612;2023-10-13T11:04:32;25.10;45.90
5723;DHT22;2886;49.722;8.612;2023-10-13T11:07:06;25.10;46.00
5723;DHT22;2886;49.722;8.612;2023-10-13T11:09:34;25.30;46.60
5723;DHT22;2886;49.722;8.612;2023-10-13T11:14:31;25.50;44.90
5723;DHT22;2886;49.722;8.612;2023-10-13T11:16:58;25.60;44.20
5723;DHT22;2886;49.722;8.612;2023-10-13T11:22:12;25.80;44.10
5723;DHT22;2886;49.722;8.612;2023-10-13T11:24:55;25.80;44.70
5723;DHT22;2886;49.722;8.612;2023-10-13T11:27:31;25.70;45.20
5723;DHT22;2886;49.722;8.612;2023-10-13T11:30:12;25.60;45.40
5723;DHT22;2886;49.722;8.612;2023-10-13T11:32:43;25.40;44.80
5723;DHT22;2886;49.722;8.612;2023-10-13T11:35:09;25.30;45.60
5723;DHT22;2886;49.722;8.612;2023-10-13T11:37:57;25.30;45.20
5723;DHT22;2886;49.722;8.612;2023-10-13T11:40:37;25.10;45.60
5723;DHT22;2886;49.722;8.612;2023-10-13T11:43:10;25.00;45.90
5723;DHT22;2886;49.722;8.612;2023-10-13T11:45:40;25.10;46.20
5723;DHT22;2886;49.722;8.612;2023-10-13T11:48:19;25.10;46.00
5723;DHT22;2886;49.722;8.612;2023-10-13T11:51:00;25.30;45.80
5723;DHT22;2886;49.722;8.612;2023-10-13T11:53:26;25.40;45.10
5723;DHT22;2886;49.722;8.612;2023-10-13T11:55:55;25.50;45.60
5723;DHT22;2886;49.722;8.612;2023-10-13T11:58:20;25.50;45.80
5723;DHT22;2886;49.722;8.612;2023-10-13T12:00:46;25.60;45.20
5723;DHT22;2886;49.722;8.612;2023-10-13T12:03:26;25.70;44.80
5723;DHT22;2886;49.722;8.612;2023-10-13T12:06:11;25.70;45.00
5723;DHT22;2886;49.722;8.612;2023-10-13T12:08:59;25.70;44.40
5723;DHT22;2886;49.722;8.612;2023-10-13T12:11:45;25.80;44.50
5723;DHT22;2886;49.722;8.612;2023-10-13T12:14:12;25.90;44.80
5723;DHT22;2886;49.722;8.612;2023-10-13T12:16:48;26.00;44.90
5723;DHT22;2886;49.722;8.612;2023-10-13T12:19:17;26.10;44.70
5723;DHT22;2886;49.722;8.612;2023-10-13T12:21:46;26.20;44.80
5723;DHT22;2886;49.722;8.612;2023-10-13T12:24:13;26.40;45.20
5723;DHT22;2886;49.722;8.612;2023-10-13T12:27:07;26.40;44.40
5723;DHT22;2886;49.722;8.612;2023-10-13T12:29:49;26.40;44.20
5723;DHT22;2886;49.722;8.612;2023-10-13T12:32:17;26.30;45.00
5723;DHT22;2886;49.722;8.612;2023-10-13T12:34:56;26.30;44.90
5723;DHT22;2886;49.722;8.612;2023-10-13T12:37:29;26.20;45.20
5723;DHT22;2886;49.722;8.612;2023-10-13T12:40:08;26.00;45.80
5723;DHT22;2886;49.722;8.612;2023-10-13T12:42:53;25.90;46.00
5723;DHT22;2886;49.722;8.612;2023-10-13T12:45:45;25.80;46.30
5723;DHT22;2886;49.722;8.612;2023-10-13T12:48:30;25.70;47.50
5723;DHT22;2886;49.722;8.612;2023-10-13T12:51:14;25.70;47.00
5723;DHT22;2886;49.722;8.612;2023-10-13T12:53:50;25.60;47.10
5723;DHT22;2886;49.722;8.612;2023-10-13T12:56:16;25.50;46.70
5723;DHT22;2886;49.722;8.612;2023-10-13T12:58:42;25.50;47.00
5723;DHT22;2886;49.722;8.612;2023-10-13T13:01:20;25.50;47.50
5723;DHT22;2886;49.722;8.612;2023-10-13T13:03:47;25.60;46.80
5723;DHT22;2886;49.722;8.612;2023-10-13T13:06:20;25.60;47.00
5723;DHT22;2886;49.722;8.612;2023-10-13T13:08:56;25.70;46.70
5723;DHT22;2886;49.722;8.612;2023-10-13T13:11:22;25.80;46.10
5723;DHT22;2886;49.722;8.612;2023-10-13T13:13:48;25.80;46.70
5723;DHT22;2886;49.722;8.612;2023-10-13T13:16:14;25.80;45.50
5723;DHT22;2886;49.722;8.612;2023-10-13T13:18:40;25.80;46.00
5723;DHT22;2886;49.722;8.612;2023-10-13T13:21:06;25.90;45.10
5723;DHT22;2886;49.722;8.612;2023-10-13T13:23:32;26.00;45.20
5723;DHT22;2886;49.722;8.612;2023-10-13T13:26:00;26.30;45.10
5723;DHT22;2886;49.722;8.612;2023-10-13T13:28:26;26.40;45.50
5723;DHT22;2886;49.722;8.612;2023-10-13T13:30:54;26.40;43.90
5723;DHT22;2886;49.722;8.612;2023-10-13T13:33:20;26.50;44.40
5723;DHT22;2886;49.722;8.612;2023-10-13T13:35:53;26.60;44.20
5723;DHT22;2886;49.722;8.612;2023-10-13T13:38:19;26.70;43.30
5723;DHT22;2886;49.722;8.612;2023-10-13T13:40:48;26.80;42.80
5723;DHT22;2886;49.722;8.612;2023-10-13T13:43:15;26.70;42.90
5723;DHT22;2886;49.722;8.612;2023-10-13T13:45:58;26.60;43.40
5723;DHT22;2886;49.722;8.612;2023-10-13T13:48:26;26.60;42.90
5723;DHT22;2886;49.722;8.612;2023-10-13T13:50:53;26.70;43.50
5723;DHT22;2886;49.722;8.612;2023-10-13T13:53:29;26.80;42.90
5723;DHT22;2886;49.722;8.612;2023-10-13T13:56:00;26.90;41.70
5723;DHT22;2886;49.722;8.612;2023-10-13T13:58:26;26.90;42.00
5723;DHT22;2886;49.722;8.612;2023-10-13T14:00:51;26.90;41.90
5723;DHT22;2886;49.722;8.612;2023-10-13T14:03:17;26.90;42.10
5723;DHT22;2886;49.722;8.612;2023-10-13T14:06:01;26.90;43.00
5723;DHT22;2886;49.722;8.612;2023-10-13T14:08:28;26.90;43.20
5723;DHT22;2886;49.722;8.612;2023-10-13T14:10:54;26.80;42.20
5723;DHT22;2886;49.722;8.612;2023-10-13T14:13:39;26.80;41.70
5723;DHT22;2886;49.722;8.612;2023-10-13T14:16:23;26.70;42.40
5723;DHT22;2886;49.722;8.612;2023-10-13T14:18:50;26.70;43.00
5723;DHT22;2886;49.722;8.612;2023-10-13T14:21:16;26.60;42.50
5723;DHT22;2886;49.722;8.612;2023-10-13T14:23:47;26.60;41.50
5723;DHT22;2886;49.722;8.612;2023-10-13T14:26:13;26.60;42.40
5723;DHT22;2886;49.722;8.612;2023-10-13T14:28:39;26.60;42.40
5723;DHT22;2886;49.722;8.612;2023-10-13T14:31:18;26.50;42.50
5723;DHT22;2886;49.722;8.612;2023-10-13T14:33:47;26.50;42.10
5723;DHT22;2886;49.722;8.612;2023-10-13T14:36:13;26.50;41.80
5723;DHT22;2886;49.722;8.612;2023-10-13T14:38:42;26.40;42.00
5723;DHT22;2886;49.722;8.612;2023-10-13T14:41:09;26.30;41.80
5723;DHT22;2886;49.722;8.612;2023-10-13T14:43:35;26.30;42.20
5723;DHT22;2886;49.722;8.612;2023-10-13T14:46:01;26.30;43.10
5723;DHT22;2886;49.722;8.612;2023-10-13T14:48:26;26.30;42.70
5723;DHT22;2886;49.722;8.612;2023-10-13T14:50:52;26.40;41.60
5723;DHT22;2886;49.722;8.612;2023-10-13T14:53:18;26.40;42.00
5723;DHT22;2886;49.722;8.612;2023-10-13T14:55:45;26.50;41.40
5723;DHT22;2886;49.722;8.612;2023-10-13T14:58:11;26.50;40.70
5723;DHT22;2886;49.722;8.612;2023-10-13T15:00:42;26.50;40.90
5723;DHT22;2886;49.722;8.612;2023-10-13T15:03:11;26.50;40.50
5723;DHT22;2886;49.722;8.612;2023-10-13T15:05:40;26.40;40.10
5723;DHT22;2886;49.722;8.612;2023-10-13T15:08:11;26.40;40.10
5723;DHT22;2886;49.722;8.612;2023-10-13T15:10:37;26.40;40.30
5723;DHT22;2886;49.722;8.612;2023-10-13T15:13:03;26.40;41.00
5723;DHT22;2886;49.722;8.612;2023-10-13T15:15:30;26.30;40.70
5723;DHT22;2886;49.722;8.612;2023-10-13T15:17:58;26.20;40.70
5723;DHT22;2886;49.722;8.612;2023-10-13T15:20:23;26.20;41.10
5723;DHT22;2886;49.722;8.612;2023-10-13T15:22:49;26.10;40.80
5723;DHT22;2886;49.722;8.612;2023-10-13T15:25:15;26.00;40.70
5723;DHT22;2886;49.722;8.612;2023-10-13T15:27:52;26.00;40.40
5723;DHT22;2886;49.722;8.612;2023-10-13T15:30:23;25.90;40.80
5723;DHT22;2886;49.722;8.612;2023-10-13T15:32:52;25.90;41.00
5723;DHT22;2886;49.722;8.612;2023-10-13T15:35:19;25.70;40.60
5723;DHT22;2886;49.722;8.612;2023-10-13T15:37:44;25.70;41.10
5723;DHT22;2886;49.722;8.612;2023-10-13T15:40:13;25.60;41.20
5723;DHT22;2886;49.722;8.612;2023-10-13T15:42:43;25.50;41.50
5723;DHT22;2886;49.722;8.612;2023-10-13T15:45:10;25.40;41.50
5723;DHT22;2886;49.722;8.612;2023-10-13T15:47:48;25.20;42.20
5723;DHT22;2886;49.722;8.612;2023-10-13T15:50:14;25.10;41.50
5723;DHT22;2886;49.722;8.612;2023-10-13T15:52:46;25.10;42.20
5723;DHT22;2886;49.722;8.612;2023-10-13T15:55:13;25.00;42.20
5723;DHT22;2886;49.722;8.612;2023-10-13T15:57:39;24.90;43.50
5723;DHT22;2886;49.722;8.612;2023-10-13T16:00:05;24.80;43.00
5723;DHT22;2886;49.722;8.612;2023-10-13T16:02:55;24.80;43.20
5723;DHT22;2886;49.722;8.612;2023-10-13T16:05:29;24.70;43.70
5723;DHT22;2886;49.722;8.612;2023-10-13T16:07:59;24.60;43.90
5723;DHT22;2886;49.722;8.612;2023-10-13T16:10:25;24.60;44.30
5723;DHT22;2886;49.722;8.612;2023-10-13T16:12:55;24.50;45.00
5723;DHT22;2886;49.722;8.612;2023-10-13T16:15:23;24.40;45.50
5723;DHT22;2886;49.722;8.612;2023-10-13T16:17:49;24.30;46.10
5723;DHT22;2886;49.722;8.612;2023-10-13T16:20:19;24.30;47.00
5723;DHT22;2886;49.722;8.612;2023-10-13T16:22:47;24.20;46.40
5723;DHT22;2886;49.722;8.612;2023-10-13T16:25:14;24.10;47.20
5723;DHT22;2886;49.722;8.612;2023-10-13T16:27:40;24.10;46.30
5723;DHT22;2886;49.722;8.612;2023-10-13T16:30:11;24.10;45.10
5723;DHT22;2886;49.722;8.612;2023-10-13T16:32:41;24.10;45.00
5723;DHT22;2886;49.722;8.612;2023-10-13T16:35:14;24.10;44.40
5723;DHT22;2886;49.722;8.612;2023-10-13T16:37:49;24.10;44.10
5723;DHT22;2886;49.722;8.612;2023-10-13T16:40:19;24.20;44.00
5723;DHT22;2886;49.722;8.612;2023-10-13T16:42:46;24.20;44.20
5723;DHT22;2886;49.722;8.612;2023-10-13T16:45:13;24.10;44.00
5723;DHT22;2886;49.722;8.612;2023-10-13T16:47:49;24.10;43.90
5723;DHT22;2886;49.722;8.612;2023-10-13T16:50:16;24.20;43.30
5723;DHT22;2886;49.722;8.612;2023-10-13T16:52:45;24.20;43.20
5723;DHT22;2886;49.722;8.612;2023-10-13T16:55:12;24.30;42.90
5723;DHT22;2886;49.722;8.612;2023-10-13T16:57:39;24.30;42.80